Time;durP1;ratioP1;P1;durP2;ratioP2;P2;SDS_P1;SDS_P2;PMS_P1;PMS_P2;Temp;Humidity;BMP_temperature;BMP_pressure;BME280_temperature;BME280_humidity;BME280_pressure;Samples;Min_cycle;Max_cycle;Signal;HPM_P1;HPM_P2
2021/07/22 00:01:30;;;;;;;13.03;7.57;;;;;;;22.15;56.69;101561.34;5113753;28;20259;-61
2021/07/22 00:03:56;;;;;;;9.27;6.57;;;;;;;21.28;56.80;101431.63;5095002;28;20660;-61
2021/07/22 00:06:21;;;;;;;10.07;6.50;;;;;;;22.05;57.00;101551.41;5113047;28;20189;-61
2021/07/22 00:08:47;;;;;;;10.80;7.67;;;;;;;21.20;56.94;101455.06;5112961;28;20174;-62
2021/07/22 00:11:12;;;;;;;10.03;7.10;;;;;;;21.95;57.19;101554.84;5113457;28;20559;-61
2021/07/22 00:13:38;;;;;;;10.20;7.37;;;;;;;21.80;57.39;101551.28;5113430;28;20182;-61
2021/07/22 00:16:04;;;;;;;8.30;7.33;;;;;;;21.76;57.66;101564.78;5112766;28;20194;-61
2021/07/22 00:18:32;;;;;;;10.03;7.47;;;;;;;21.68;58.14;101561.59;5113172;28;20174;-61
2021/07/22 00:20:58;;;;;;;8.03;7.20;;;;;;;21.56;58.42;101550.56;5113300;28;20182;-61
2021/07/22 00:23:23;;;;;;;10.20;7.63;;;;;;;21.02;58.71;101477.78;5112005;28;20212;-61
2021/07/22 00:25:49;;;;;;;9.80;6.47;;;;;;;21.51;58.50;101549.22;5112962;28;20182;-61
2021/07/22 00:28:14;;;;;;;9.63;7.20;;;;;;;21.43;58.59;101555.69;5112223;28;20253;-61
2021/07/22 00:30:39;;;;;;;10.23;6.90;;;;;;;21.39;58.85;101553.06;5112760;28;20227;-61
2021/07/22 00:33:05;;;;;;;10.77;7.43;;;;;;;21.32;59.24;101549.84;5113182;28;20178;-61
2021/07/22 00:35:31;;;;;;;10.80;7.43;;;;;;;21.13;59.45;101529.50;5112996;28;20709;-61
2021/07/22 00:37:57;;;;;;;8.73;7.07;;;;;;;21.21;59.61;101547.63;5111957;28;20215;-62
2021/07/22 00:40:22;;;;;;;9.50;8.13;;;;;;;21.11;60.13;101551.78;5112917;28;20200;-61
2021/07/22 00:43:17;;;;;;;12.37;8.13;;;;;;;20.99;60.22;101543.56;5112933;28;20579;-61
2021/07/22 00:45:42;;;;;;;9.67;7.43;;;;;;;21.01;60.12;101543.84;5090973;28;20577;-61
2021/07/22 00:48:08;;;;;;;8.53;7.30;;;;;;;20.98;60.27;101551.25;5112186;28;20208;-61
2021/07/22 00:50:33;;;;;;;10.47;8.13;;;;;;;20.97;59.96;101544.06;5112614;28;20181;-61
2021/07/22 00:52:59;;;;;;;9.27;7.63;;;;;;;20.79;60.21;101537.75;5112596;28;20187;-61
2021/07/22 00:55:27;;;;;;;10.87;8.10;;;;;;;20.84;60.18;101545.53;5112673;28;20198;-61
2021/07/22 00:57:53;;;;;;;9.03;7.87;;;;;;;20.80;60.34;101544.94;5111885;28;20192;-61
2021/07/22 01:00:19;;;;;;;11.23;7.93;;;;;;;20.76;60.53;101542.31;5112234;28;20569;-61
2021/07/22 01:02:44;;;;;;;10.30;8.10;;;;;;;20.78;60.54;101541.84;5112477;28;20184;-61
2021/07/22 01:05:10;;;;;;;10.33;7.90;;;;;;;20.76;60.55;101542.31;5112316;28;20180;-61
2021/07/22 01:07:37;;;;;;;10.50;7.70;;;;;;;20.26;60.41;101470.06;5111823;28;20560;-61
2021/07/22 01:10:04;;;;;;;8.50;7.60;;;;;;;20.75;60.95;101549.22;5111813;28;20572;-61
2021/07/22 01:12:29;;;;;;;9.40;7.70;;;;;;;20.12;60.72;101448.25;5112429;28;20223;-61
2021/07/22 01:14:55;;;;;;;11.43;7.40;;;;;;;20.60;61.22;101533.50;5112077;28;20240;-61
2021/07/22 01:17:47;;;;;;;9.77;7.73;;;;;;;20.58;61.40;101536.03;5111576;28;20174;-61
2021/07/22 01:20:17;;;;;;;9.30;7.67;;;;;;;20.58;61.41;101533.22;5112359;28;20167;-61
2021/07/22 01:22:44;;;;;;;11.20;7.67;;;;;;;19.79;61.08;101427.00;5112034;28;20677;-61
2021/07/22 01:25:10;;;;;;;9.53;7.17;;;;;;;20.37;60.90;101525.84;5112117;28;20214;-61
2021/07/22 01:27:36;;;;;;;10.93;7.30;;;;;;;20.53;61.33;101543.06;5111398;28;20249;-61
2021/07/22 01:30:02;;;;;;;9.67;7.27;;;;;;;20.07;61.39;101476.25;5111630;28;20179;-61
2021/07/22 01:32:28;;;;;;;11.10;7.80;;;;;;;20.50;61.85;101540.44;5111779;28;20235;-61
2021/07/22 01:34:53;;;;;;;10.03;7.57;;;;;;;20.49;61.63;101538.88;5111326;28;20181;-61
2021/07/22 01:37:19;;;;;;;10.37;7.27;;;;;;;20.45;61.78;101550.34;5111147;28;20181;-61
2021/07/22 01:39:44;;;;;;;10.50;7.30;;;;;;;20.45;61.71;101553.16;5111535;28;20177;-61
2021/07/22 01:42:10;;;;;;;12.27;7.33;;;;;;;19.59;61.64;101419.13;5111674;28;20727;-61
2021/07/22 01:44:35;;;;;;;8.73;6.90;;;;;;;20.40;61.71;101542.53;5111840;28;20629;-61
2021/07/22 01:47:04;;;;;;;9.87;7.40;;;;;;;20.38;61.78;101547.09;5110882;28;20249;-61
2021/07/22 01:49:30;;;;;;;9.50;7.10;;;;;;;20.34;61.60;101543.66;5111427;28;20176;-61
2021/07/22 01:51:56;;;;;;;8.60;6.67;;;;;;;20.34;61.59;101552.13;5111554;28;20223;-61
2021/07/22 01:54:21;;;;;;;10.20;6.83;;;;;;;19.49;61.86;101426.03;5111754;28;20259;-61
2021/07/22 01:56:47;;;;;;;8.03;6.50;;;;;;;20.05;61.83;101518.91;5110668;28;20281;-61
2021/07/22 01:59:12;;;;;;;8.83;6.93;;;;;;;20.23;61.94;101544.22;5111193;28;20180;-61
2021/07/22 02:01:38;;;;;;;14.17;7.40;;;;;;;20.25;62.27;101533.25;5111332;28;20186;-61
2021/07/22 02:04:04;;;;;;;12.07;7.17;;;;;;;20.17;62.15;101543.28;5111323;28;20545;-61
2021/07/22 02:06:30;;;;;;;8.47;6.50;;;;;;;19.62;61.62;101457.53;5110770;28;20173;-61
2021/07/22 02:08:56;;;;;;;8.17;6.40;;;;;;;19.18;61.83;101383.34;5111080;28;20223;-61
2021/07/22 02:11:21;;;;;;;8.77;6.10;;;;;;;20.17;62.17;101554.53;5111247;28;20722;-61
2021/07/22 02:13:47;;;;;;;7.33;6.50;;;;;;;19.79;62.03;101498.09;5111283;28;20648;-61
2021/07/22 02:16:12;;;;;;;7.10;5.83;;;;;;;20.17;61.71;101554.53;5110512;28;20255;-61
2021/07/22 02:18:38;;;;;;;7.73;6.33;;;;;;;19.43;61.94;101433.56;5111014;28;20257;-61
2021/07/22 02:21:05;;;;;;;8.77;6.50;;;;;;;20.22;61.59;101567.19;5111321;28;20179;-61
2021/07/22 02:23:31;;;;;;;11.60;6.80;;;;;;;20.21;61.82;101552.31;5111003;28;20182;-61
2021/07/22 02:25:57;;;;;;;9.90;6.17;;;;;;;20.20;61.85;101561.25;5111180;28;20185;-61
2021/07/22 02:28:22;;;;;;;9.77;6.57;;;;;;;20.21;62.09;101560.78;5111000;28;20179;-61
2021/07/22 02:30:48;;;;;;;8.03;6.03;;;;;;;19.23;61.74;101402.41;5110844;28;20185;-61
2021/07/22 02:33:13;;;;;;;9.80;6.53;;;;;;;20.21;62.28;101563.59;5111392;28;20180;-61
2021/07/22 02:35:38;;;;;;;8.90;6.13;;;;;;;20.04;62.35;101539.09;5110940;28;20212;-61
2021/07/22 02:38:04;;;;;;;9.47;6.77;;;;;;;20.07;62.86;101566.28;5110338;28;20232;-61
2021/07/22 02:40:30;;;;;;;9.70;6.57;;;;;;;20.08;62.83;101567.88;5110921;28;20184;-61
2021/07/22 02:42:56;;;;;;;8.17;6.30;;;;;;;20.14;62.70;101561.13;5110867;28;20257;-61
2021/07/22 02:45:21;;;;;;;11.50;6.63;;;;;;;20.06;62.63;101554.25;5111297;28;20210;-61
2021/07/22 02:47:47;;;;;;;11.60;6.33;;;;;;;20.11;62.55;101562.06;5112313;28;20269;-61
2021/07/22 02:50:12;;;;;;;9.47;6.20;;;;;;;20.07;62.35;101555.81;5114938;28;20234;-61
2021/07/22 02:52:38;;;;;;;10.00;6.43;;;;;;;20.09;62.57;101569.44;5115024;28;20695;-61
2021/07/22 02:55:04;;;;;;;9.80;6.50;;;;;;;19.97;62.75;101576.03;5115008;28;20196;-61
2021/07/22 02:57:29;;;;;;;11.60;6.70;;;;;;;19.88;63.50;101587.28;5114292;28;20535;-61
2021/07/22 02:59:56;;;;;;;10.67;6.10;;;;;;;19.92;63.28;101590.72;5114623;28;20184;-61
2021/07/22 03:02:22;;;;;;;11.87;6.87;;;;;;;19.42;63.18;101493.84;5114901;28;20174;-61
2021/07/22 03:04:47;;;;;;;9.53;6.37;;;;;;;19.99;63.21;101579.13;5114769;28;20229;-61
2021/07/22 03:07:13;;;;;;;10.40;6.67;;;;;;;19.94;62.88;101571.31;5113996;28;20183;-61
2021/07/22 03:09:38;;;;;;;9.07;6.43;;;;;;;19.98;63.05;101583.19;5114325;28;20210;-61
2021/07/22 03:12:04;;;;;;;10.93;6.30;;;;;;;19.97;63.18;101581.63;5114647;28;20610;-61
2021/07/22 03:14:29;;;;;;;11.77;6.67;;;;;;;19.87;62.96;101592.16;5114694;28;20670;-61
2021/07/22 03:16:55;;;;;;;9.27;6.67;;;;;;;19.78;62.62;101585.75;5113647;28;20402;-61
2021/07/22 03:19:21;;;;;;;23.00;8.30;;;;;;;19.70;63.14;101592.97;5114438;28;20638;-61
2021/07/22 03:21:47;;;;;;;16.57;7.20;;;;;;;19.56;63.31;101596.44;5114388;28;20177;-61
2021/07/22 03:24:13;;;;;;;11.07;6.77;;;;;;;18.96;63.06;101485.91;5114116;28;20271;-61
2021/07/22 03:26:38;;;;;;;11.83;6.60;;;;;;;19.38;63.21;101562.69;5113694;28;20170;-61
2021/07/22 03:29:03;;;;;;;11.40;6.33;;;;;;;19.59;63.61;101599.06;5114320;28;20182;-61
2021/07/22 03:31:29;;;;;;;8.77;6.43;;;;;;;19.40;63.45;101582.72;5114159;28;20174;-61
2021/07/22 03:33:55;;;;;;;10.43;6.57;;;;;;;19.49;63.61;101593.94;5114077;28;20206;-61
2021/07/22 03:36:20;;;;;;;9.60;6.70;;;;;;;19.37;64.00;101575.19;5113567;28;20201;-61
2021/07/22 03:38:46;;;;;;;9.57;6.43;;;;;;;19.41;63.74;101575.81;5113701;28;20470;-61
2021/07/22 03:41:15;;;;;;;8.07;6.00;;;;;;;19.44;63.47;101569.28;5114031;28;20185;-61
2021/07/22 03:43:41;;;;;;;12.13;6.73;;;;;;;19.57;63.47;101579.09;5114076;28;20176;-61
2021/07/22 03:46:07;;;;;;;8.97;6.80;;;;;;;19.71;63.20;101597.34;5095038;28;20277;-61
2021/07/22 03:48:32;;;;;;;8.30;6.10;;;;;;;19.75;63.28;101597.97;5113953;28;20251;-61
2021/07/22 03:50:58;;;;;;;10.47;6.77;;;;;;;19.76;63.15;101599.53;5095364;28;20596;-61
2021/07/22 03:53:23;;;;;;;8.97;6.83;;;;;;;19.80;63.07;101600.13;5114024;28;20178;-61
2021/07/22 03:55:49;;;;;;;9.97;6.57;;;;;;;19.84;62.94;101600.72;5113554;28;20254;-61
2021/07/22 03:58:14;;;;;;;9.03;6.30;;;;;;;19.78;63.08;101611.06;5112774;28;20177;-61
2021/07/22 04:00:40;;;;;;;8.20;6.43;;;;;;;19.91;62.65;101606.81;5113488;28;20234;-61
2021/07/22 04:03:05;;;;;;;9.07;6.37;;;;;;;19.98;62.56;101609.31;5104307;28;20193;-61
2021/07/22 04:05:31;;;;;;;7.93;6.20;;;;;;;19.30;62.49;101508.84;5113983;28;20632;-61
2021/07/22 04:07:57;;;;;;;8.17;6.23;;;;;;;18.84;62.75;101442.69;5112509;28;20588;-61
2021/07/22 04:10:27;;;;;;;9.10;6.20;;;;;;;20.04;62.61;101615.84;5113121;28;20182;-61
2021/07/22 04:13:00;;;;;;;7.40;5.70;;;;;;;20.08;62.44;101608.06;5113367;28;20546;-61
2021/07/22 04:15:26;;;;;;;10.33;5.53;;;;;;;20.18;62.32;101614.44;5113442;28;20205;-61
2021/07/22 04:17:53;;;;;;;9.63;6.63;;;;;;;20.23;63.86;101613.78;5112503;28;20182;-61
2021/07/22 04:20:21;;;;;;;8.80;6.90;;;;;;;20.06;64.30;101627.41;5094922;28;20178;-61
2021/07/22 04:22:47;;;;;;;8.40;6.97;;;;;;;19.98;64.28;101631.81;5113148;28;20335;-61
2021/07/22 04:25:13;;;;;;;10.97;7.30;;;;;;;20.11;63.55;101623.22;5097189;28;20266;-61
2021/07/22 04:27:39;;;;;;;8.63;7.30;;;;;;;20.18;63.56;101628.50;5091856;28;20231;-61
2021/07/22 04:30:05;;;;;;;8.23;6.73;;;;;;;19.94;63.55;101602.28;5092490;28;20204;-61
2021/07/22 04:32:31;;;;;;;11.27;7.03;;;;;;;20.20;63.75;101621.13;5092767;28;20175;-61
2021/07/22 04:34:56;;;;;;;9.23;7.17;;;;;;;20.31;63.55;101617.81;5092311;28;20182;-61
2021/07/22 04:37:22;;;;;;;11.50;6.87;;;;;;;20.28;63.37;101602.66;5091569;28;20395;-61
2021/07/22 04:39:47;;;;;;;11.57;8.30;;;;;;;20.51;63.25;101627.25;5092058;28;20210;-61
2021/07/22 04:42:12;;;;;;;15.53;9.97;;;;;;;20.61;63.19;101633.63;5092419;28;20219;-61
2021/07/22 04:44:38;;;;;;;13.37;8.57;;;;;;;20.58;62.73;101618.44;5092350;28;20181;-61
2021/07/22 04:47:04;;;;;;;14.97;8.63;;;;;;;20.78;62.58;101637.63;5086960;28;20621;-61
2021/07/22 04:49:29;;;;;;;16.60;8.50;;;;;;;20.87;62.71;101638.31;5106077;28;20186;-61
2021/07/22 04:51:58;;;;;;;11.60;7.90;;;;;;;20.88;62.89;101619.41;5109576;27;20685;-61
2021/07/22 04:54:23;;;;;;;11.23;7.20;;;;;;;21.06;62.82;101631.34;5112730;28;20716;-61
2021/07/22 04:56:49;;;;;;;16.93;8.07;;;;;;;21.20;62.73;101641.13;5111345;28;20202;-61
2021/07/22 04:59:14;;;;;;;10.93;7.50;;;;;;;20.72;62.93;101555.03;5089880;28;20185;-61
2021/07/22 05:01:40;;;;;;;10.50;6.50;;;;;;;21.41;62.93;101640.00;5083615;28;20718;-61
2021/07/22 05:04:06;;;;;;;10.57;6.37;;;;;;;21.55;62.70;101645.66;5086882;28;20198;-61
2021/07/22 05:06:33;;;;;;;9.10;6.27;;;;;;;21.06;62.29;101560.88;5103019;28;20191;-61
2021/07/22 05:08:58;;;;;;;8.83;5.93;;;;;;;21.78;61.98;101646.91;5093799;27;20194;-61
2021/07/22 05:11:24;;;;;;;8.00;5.87;;;;;;;21.73;61.13;101628.63;5106950;28;20193;-61
2021/07/22 05:13:49;;;;;;;9.33;5.97;;;;;;;21.97;61.72;101649.06;5101910;28;21860;-61
2021/07/22 05:16:15;;;;;;;8.33;5.03;;;;;;;21.86;60.92;101648.84;5069941;28;20214;-61
2021/07/22 05:18:40;;;;;;;9.47;5.20;;;;;;;21.97;60.79;101657.53;5098052;28;20178;-61
2021/07/22 05:21:07;;;;;;;5.73;4.67;;;;;;;21.87;59.39;101641.97;5108667;28;20209;-61
2021/07/22 05:23:33;;;;;;;7.87;5.07;;;;;;;21.92;60.88;101658.22;5107576;28;20254;-61
2021/07/22 05:26:05;;;;;;;8.63;4.87;;;;;;;21.76;61.11;101638.16;5107091;28;20616;-61
2021/07/22 05:28:31;;;;;;;8.57;4.30;;;;;;;21.94;60.51;101657.72;5104630;28;20277;-61
2021/07/22 05:30:56;;;;;;;7.57;4.50;;;;;;;21.44;58.95;101565.72;5104885;28;20651;-61
2021/07/22 05:33:22;;;;;;;8.00;4.33;;;;;;;22.05;58.33;101661.50;5096250;28;20453;-61
2021/07/22 05:35:47;;;;;;;5.43;3.97;;;;;;;21.98;59.24;101664.72;5106763;28;20197;-61
2021/07/22 05:38:12;;;;;;;7.63;3.97;;;;;;;21.02;57.32;101497.50;5108589;28;20185;-61
2021/07/22 05:40:38;;;;;;;8.23;4.10;;;;;;;22.03;59.09;101668.91;5081013;28;20183;-61
2021/07/22 05:43:04;;;;;;;5.20;3.90;;;;;;;21.99;57.64;101668.31;5102537;28;20271;-61
2021/07/22 05:45:29;;;;;;;7.07;3.63;;;;;;;22.16;57.65;101667.34;5107962;28;20269;-61
2021/07/22 05:47:55;;;;;;;6.30;3.93;;;;;;;22.14;58.01;101669.88;5108697;28;20189;-61
2021/07/22 05:50:21;;;;;;;7.50;3.90;;;;;;;22.22;58.51;101665.38;5108824;28;20694;-61
2021/07/22 05:52:46;;;;;;;5.53;3.90;;;;;;;21.73;56.01;101579.84;5094541;28;20214;-61
2021/07/22 05:55:12;;;;;;;5.87;3.53;;;;;;;21.81;56.46;101564.09;5097952;28;20209;-61
2021/07/22 05:57:37;;;;;;;5.47;3.80;;;;;;;22.29;54.81;101636.78;5101771;28;20253;-61
2021/07/22 06:00:07;;;;;;;7.03;3.80;;;;;;;22.67;55.50;101669.75;5102713;28;20678;-61
2021/07/22 06:02:32;;;;;;;8.10;3.73;;;;;;;21.96;55.28;101550.78;5108363;28;20178;-61
2021/07/22 06:05:00;;;;;;;8.17;3.30;;;;;;;22.73;54.02;101645.19;5107797;28;20201;-61
2021/07/22 06:07:26;;;;;;;5.53;3.63;;;;;;;23.08;54.23;101665.72;5108307;28;20197;-61
2021/07/22 06:09:51;;;;;;;8.67;3.97;;;;;;;23.16;54.22;101666.84;5107296;28;20182;-61
2021/07/22 06:12:16;;;;;;;5.67;3.73;;;;;;;23.29;51.83;101664.47;5107869;28;20201;-61
2021/07/22 06:14:42;;;;;;;5.00;3.20;;;;;;;23.35;51.76;101662.50;5107631;28;20193;-61
2021/07/22 06:17:07;;;;;;;5.87;3.27;;;;;;;23.56;52.48;101676.13;5107781;28;20206;-61
2021/07/22 06:19:33;;;;;;;6.17;3.50;;;;;;;23.69;51.59;101665.19;5106945;28;20178;-61
2021/07/22 06:21:59;;;;;;;6.90;3.60;;;;;;;23.40;52.25;101589.03;5107639;28;20178;-61
2021/07/22 06:24:24;;;;;;;5.43;3.57;;;;;;;24.01;51.77;101654.75;5106870;28;20605;-61
2021/07/22 06:26:50;;;;;;;4.57;3.20;;;;;;;24.30;50.62;101674.34;5102054;28;20182;-61
2021/07/22 06:29:15;;;;;;;5.73;3.17;;;;;;;24.43;51.11;101671.84;5104820;28;20170;-61
2021/07/22 06:31:40;;;;;;;6.60;3.30;;;;;;;24.64;50.68;101682.63;5103302;28;20568;-61
2021/07/22 06:34:06;;;;;;;4.93;3.27;;;;;;;24.77;49.63;101680.13;5098538;28;20178;-61
2021/07/22 06:36:31;;;;;;;8.53;3.50;;;;;;;24.89;49.18;101676.09;5107519;28;20202;-61
2021/07/22 06:38:57;;;;;;;9.03;3.30;;;;;;;24.51;48.83;101594.38;5107462;28;20186;-61
2021/07/22 06:41:22;;;;;;;6.73;3.30;;;;;;;24.88;47.33;101674.50;5108456;28;20268;-61
2021/07/22 06:43:49;;;;;;;6.93;2.97;;;;;;;24.13;47.73;101585.59;5099141;28;20167;-61
2021/07/22 06:46:14;;;;;;;6.77;3.23;;;;;;;24.77;46.35;101685.03;5089378;28;20265;-61
2021/07/22 06:48:40;;;;;;;6.23;3.00;;;;;;;24.80;46.51;101676.28;5106629;28;20732;-61
2021/07/22 06:51:09;;;;;;;5.83;2.90;;;;;;;24.96;46.60;101680.50;5090156;28;20667;-61
2021/07/22 06:53:35;;;;;;;4.30;2.73;;;;;;;24.99;45.78;101677.44;5107249;28;20178;-61
2021/07/22 06:56:02;;;;;;;3.67;2.70;;;;;;;24.83;44.46;101680.16;5106861;28;20194;-61
2021/07/22 06:58:27;;;;;;;5.63;2.50;;;;;;;24.67;44.56;101680.84;5089638;28;20205;-61
2021/07/22 07:00:53;;;;;;;5.20;2.97;;;;;;;24.69;45.66;101678.25;5107677;28;20182;-61
2021/07/22 07:03:19;;;;;;;4.47;2.93;;;;;;;24.51;44.89;101625.53;5107086;28;20178;-61
2021/07/22 07:05:44;;;;;;;4.47;2.80;;;;;;;25.01;45.11;101676.91;5105828;28;20611;-61
2021/07/22 07:08:10;;;;;;;6.97;2.47;;;;;;;25.29;44.46;101672.19;5101336;28;20183;-61
2021/07/22 07:10:36;;;;;;;8.03;3.20;;;;;;;25.45;44.33;101665.81;5103497;28;20568;-61
2021/07/22 07:13:02;;;;;;;4.20;2.70;;;;;;;25.50;42.16;101660.16;5107174;28;20350;-61
2021/07/22 07:15:28;;;;;;;3.70;2.30;;;;;;;25.61;42.75;101668.72;5106980;28;20290;-61
2021/07/22 07:17:53;;;;;;;3.80;2.67;;;;;;;25.73;42.49;101672.31;5107290;28;20652;-61
2021/07/22 07:20:19;;;;;;;3.53;2.63;;;;;;;25.84;42.89;101684.50;5106653;28;20193;-61
2021/07/22 07:22:44;;;;;;;5.17;2.83;;;;;;;25.92;42.81;101659.25;5106795;28;20643;-61
2021/07/22 07:25:11;;;;;;;4.67;2.50;;;;;;;26.10;42.67;101670.88;5107265;28;20761;-61
2021/07/22 07:27:38;;;;;;;4.60;2.90;;;;;;;26.27;42.13;101663.16;5107599;28;20709;-61
2021/07/22 07:30:04;;;;;;;4.93;2.90;;;;;;;26.41;41.03;101667.03;5107779;28;20186;-61
2021/07/22 07:32:30;;;;;;;3.37;2.47;;;;;;;26.43;40.37;101664.44;5106715;28;20183;-61
2021/07/22 07:34:55;;;;;;;4.57;2.80;;;;;;;26.42;39.63;101648.69;5110451;28;20185;-61
2021/07/22 07:37:21;;;;;;;5.47;2.43;;;;;;;26.66;40.21;101672.44;5110488;28;20178;-61
2021/07/22 07:39:46;;;;;;;7.53;3.00;;;;;;;26.78;39.94;101673.22;5082915;28;20202;-61
2021/07/22 07:42:12;;;;;;;4.30;2.53;;;;;;;26.80;39.58;101657.19;5105471;28;20297;-61
2021/07/22 07:44:37;;;;;;;5.17;2.57;;;;;;;26.38;39.51;101571.41;5111318;28;20182;-61
2021/07/22 07:47:03;;;;;;;3.63;2.33;;;;;;;26.83;39.21;101622.03;5110795;28;20190;-61
2021/07/22 07:49:28;;;;;;;3.63;2.50;;;;;;;26.84;37.66;101673.97;5109932;28;20182;-62
2021/07/22 07:51:54;;;;;;;4.07;2.47;;;;;;;26.80;37.69;101662.09;5111405;28;20183;-61
2021/07/22 07:54:21;;;;;;;4.87;2.60;;;;;;;26.70;37.99;101664.44;5110003;28;20196;-61
2021/07/22 07:56:49;;;;;;;5.47;2.60;;;;;;;26.18;38.36;101568.88;5104724;28;20872;-62
2021/07/22 07:59:14;;;;;;;3.30;2.23;;;;;;;27.03;38.11;101664.34;5087549;28;20198;-61
2021/07/22 08:01:40;;;;;;;4.63;2.23;;;;;;;26.83;38.13;101610.66;5109997;28;20189;-62
2021/07/22 08:04:05;;;;;;;5.17;2.40;;;;;;;26.87;37.88;101601.84;5110168;28;20632;-61
2021/07/22 08:06:30;;;;;;;5.23;2.37;;;;;;;27.49;36.51;101672.22;5109067;28;20260;-60
2021/07/22 08:08:56;;;;;;;5.93;2.33;;;;;;;27.36;36.57;101664.25;5090871;28;20218;-60
2021/07/22 08:11:21;;;;;;;5.37;2.50;;;;;;;27.26;36.39;101674.41;5109173;28;20304;-61
2021/07/22 08:13:47;;;;;;;4.50;2.30;;;;;;;27.48;37.31;101667.84;5109621;28;20235;-60
2021/07/22 08:16:16;;;;;;;4.97;2.20;;;;;;;27.64;36.16;101667.72;5109196;28;20255;-61
2021/07/22 08:18:43;;;;;;;2.90;2.05;;;;;;;27.84;36.36;101675.94;5109380;28;20300;-60
2021/07/22 08:21:08;;;;;;;3.80;2.40;;;;;;;27.39;34.92;101609.13;5108919;28;20428;-61
2021/07/22 08:23:34;;;;;;;5.57;2.30;;;;;;;27.30;35.83;101605.81;5108108;28;20485;-61
2021/07/22 08:25:59;;;;;;;4.78;2.65;;;;;;;27.79;36.45;101653.94;5109320;28;20663;-60
2021/07/22 08:28:25;;;;;;;5.13;2.27;;;;;;;28.00;35.93;101677.13;5107808;28;20266;-60
2021/07/22 08:30:50;;;;;;;3.50;2.10;;;;;;;27.96;35.45;101680.28;5110008;28;20187;-61
2021/07/22 08:33:15;;;;;;;4.07;2.20;;;;;;;28.09;34.07;101679.66;5106604;28;20642;-61
2021/07/22 08:35:41;;;;;;;3.85;2.17;;;;;;;28.15;33.95;101678.31;5106808;28;20206;-61
2021/07/22 08:38:10;;;;;;;3.60;2.15;;;;;;;27.87;33.72;101674.09;5107453;28;20212;-60
2021/07/22 08:40:36;;;;;;;4.40;2.13;;;;;;;27.67;35.72;101678.09;5107378;28;20542;-61
2021/07/22 08:43:03;;;;;;;3.70;2.20;;;;;;;27.67;35.87;101675.22;5107421;28;20452;-61
2021/07/22 08:45:29;;;;;;;6.40;2.00;;;;;;;27.62;35.65;101604.84;5107365;28;20178;-60
2021/07/22 08:47:56;;;;;;;3.53;2.17;;;;;;;28.19;35.41;101680.88;5105224;28;20668;-61
2021/07/22 08:50:22;;;;;;;2.93;2.10;;;;;;;28.16;36.09;101691.28;5097743;28;20683;-60
2021/07/22 08:52:47;;;;;;;3.20;1.90;;;;;;;28.34;35.38;101684.13;5105853;28;20187;-60
2021/07/22 08:55:13;;;;;;;4.50;2.37;;;;;;;28.32;34.04;101683.88;5107736;28;20202;-61
2021/07/22 08:57:40;;;;;;;3.23;2.07;;;;;;;27.93;34.21;101626.41;5107027;28;20667;-60
2021/07/22 09:00:07;;;;;;;4.00;2.30;;;;;;;28.28;34.16;101641.41;5089480;28;20177;-61
2021/07/22 09:02:33;;;;;;;3.72;2.08;;;;;;;28.16;34.00;101679.88;5109333;28;20174;-60
2021/07/22 09:05:01;;;;;;;3.60;2.33;;;;;;;28.21;34.65;101683.97;5103224;28;20192;-60
2021/07/22 09:07:28;;;;;;;2.85;2.17;;;;;;;28.57;34.00;101686.28;5108033;28;20189;-60
2021/07/22 09:10:06;;;;;;;3.50;2.13;;;;;;;28.75;33.53;101681.94;5108123;28;20182;-61
2021/07/22 09:12:39;;;;;;;2.87;2.43;;;;;;;28.23;32.62;101570.97;5107345;28;20238;-61
2021/07/22 09:15:07;;;;;;;3.72;1.98;;;;;;;29.14;32.92;101679.50;5107654;28;20232;-61
2021/07/22 09:17:33;;;;;;;3.03;2.00;;;;;;;29.03;33.51;101677.53;5106004;28;20182;-61
2021/07/22 09:19:58;;;;;;;5.43;2.00;;;;;;;28.88;34.10;101668.59;5101419;28;20572;-61
2021/07/22 09:22:35;;;;;;;4.33;1.90;;;;;;;29.04;34.70;101658.31;5108251;28;20210;-61
2021/07/22 09:25:01;;;;;;;3.72;1.95;;;;;;;28.78;34.48;101604.66;5089216;28;20243;-61
2021/07/22 09:27:34;;;;;;;2.70;2.10;;;;;;;29.10;33.88;101622.72;5107472;28;20602;-60
2021/07/22 09:30:01;;;;;;;2.13;1.67;;;;;;;29.61;32.96;101661.53;5103284;28;20472;-61
2021/07/22 09:32:31;;;;;;;3.08;2.00;;;;;;;29.83;32.81;101657.56;5096807;28;20194;-61
2021/07/22 09:35:11;;;;;;;2.53;1.80;;;;;;;29.58;31.71;101656.88;5099112;28;20186;-61
2021/07/22 09:37:48;;;;;;;3.15;1.70;;;;;;;29.73;31.55;101660.03;5101126;28;20197;-61
2021/07/22 09:40:32;;;;;;;3.47;1.70;;;;;;;29.34;30.13;101568.41;5104480;28;20189;-61
2021/07/22 09:42:57;;;;;;;2.05;1.63;;;;;;;29.65;29.91;101638.34;5096263;28;20983;-62
2021/07/22 09:45:25;;;;;;;3.88;1.70;;;;;;;29.32;30.81;101642.41;5089963;28;20576;-62
2021/07/22 09:47:52;;;;;;;3.33;1.80;;;;;;;29.56;32.30;101645.22;5106276;28;20243;-62
2021/07/22 09:50:22;;;;;;;4.55;1.70;;;;;;;29.93;31.85;101647.25;5107129;28;20174;-62
2021/07/22 09:53:04;;;;;;;2.75;1.80;;;;;;;30.04;31.10;101644.25;5107195;28;20178;-62
2021/07/22 09:55:32;;;;;;;3.88;1.90;;;;;;;29.77;30.14;101636.88;5107080;28;20670;-62
2021/07/22 09:58:00;;;;;;;3.33;1.80;;;;;;;29.95;31.11;101636.06;5107643;28;20631;-62
2021/07/22 10:00:27;;;;;;;2.10;1.60;;;;;;;30.11;30.94;101643.63;5107173;28;20231;-62
2021/07/22 10:02:55;;;;;;;2.63;1.40;;;;;;;30.14;30.44;101642.56;5106792;28;20190;-62
2021/07/22 10:05:27;;;;;;;3.67;1.80;;;;;;;30.49;29.67;101637.25;5108355;28;20664;-62
2021/07/22 10:07:54;;;;;;;4.78;1.80;;;;;;;30.62;28.79;101633.66;5106880;28;20593;-62
2021/07/22 10:10:26;;;;;;;3.22;1.90;;;;;;;30.29;28.38;101548.47;5107728;28;20180;-62
2021/07/22 10:13:00;;;;;;;2.40;1.80;;;;;;;30.52;29.03;101558.94;5095836;28;20255;-62
2021/07/22 10:15:31;;;;;;;4.05;1.67;;;;;;;31.06;27.58;101630.72;5092721;28;20583;-62
2021/07/22 10:17:59;;;;;;;6.00;1.92;;;;;;;30.95;28.73;101633.81;5099193;28;20210;-62
2021/07/22 10:20:29;;;;;;;4.40;1.83;;;;;;;30.91;29.28;101619.03;5107293;28;20208;-62
2021/07/22 10:22:55;;;;;;;3.40;1.98;;;;;;;30.78;27.89;101621.91;5100763;28;20674;-62
2021/07/22 10:25:21;;;;;;;4.30;1.90;;;;;;;30.97;27.83;101627.53;5093579;28;20174;-62
2021/07/22 10:27:47;;;;;;;2.33;1.75;;;;;;;30.84;27.72;101613.22;5096216;28;20186;-62
2021/07/22 10:30:16;;;;;;;3.47;1.77;;;;;;;31.16;27.39;101616.69;5096158;28;20186;-62
2021/07/22 10:32:51;;;;;;;3.10;1.95;;;;;;;31.19;27.91;101609.88;5101327;28;20550;-62
2021/07/22 10:35:26;;;;;;;4.05;2.00;;;;;;;31.14;28.76;101611.56;5074780;28;20209;-62
2021/07/22 10:38:14;;;;;;;2.60;1.90;;;;;;;31.35;28.28;101608.78;5101643;28;20182;-62
2021/07/22 10:40:51;;;;;;;4.25;1.92;;;;;;;31.14;28.09;101557.16;5096413;28;20225;-62
2021/07/22 10:43:38;;;;;;;2.90;1.80;;;;;;;31.76;26.83;101600.28;5100537;28;20214;-62
2021/07/22 10:46:14;;;;;;;3.13;1.92;;;;;;;31.85;27.17;101600.59;5087205;28;20186;-62
2021/07/22 10:48:42;;;;;;;2.20;1.60;;;;;;;31.30;27.19;101527.38;5107126;28;20163;-62
2021/07/22 10:51:15;;;;;;;4.43;1.77;;;;;;;31.71;28.06;101587.63;5106242;28;20590;-62
2021/07/22 10:53:49;;;;;;;4.50;2.17;;;;;;;32.05;27.08;101594.09;5105411;28;20557;-62
2021/07/22 10:56:44;;;;;;;4.82;2.00;;;;;;;31.78;26.30;101498.09;5101482;28;20574;-62
2021/07/22 10:59:09;;;;;;;2.38;1.67;;;;;;;32.72;25.20;101590.25;5098055;28;20229;-62
2021/07/22 11:01:44;;;;;;;5.75;1.95;;;;;;;32.94;24.58;101583.88;5103008;28;20209;-62
2021/07/22 11:04:10;;;;;;;2.42;1.60;;;;;;;33.08;24.70;101583.22;5095042;28;20633;-62
2021/07/22 11:06:57;;;;;;;2.42;1.50;;;;;;;33.44;24.89;101580.31;5097176;28;20170;-62
2021/07/22 11:09:42;;;;;;;2.67;1.52;;;;;;;32.73;24.61;101499.91;5104709;28;20511;-62
2021/07/22 11:12:31;;;;;;;3.35;1.58;;;;;;;32.47;25.19;101480.84;5111461;28;20174;-62
2021/07/22 11:14:58;;;;;;;2.83;1.60;;;;;;;33.36;26.28;101553.63;5098481;28;20576;-62
2021/07/22 11:17:33;;;;;;;2.28;1.58;;;;;;;33.66;24.47;101559.47;5103403;28;20733;-62
2021/07/22 11:20:17;;;;;;;3.88;1.50;;;;;;;33.15;24.65;101552.97;5109951;28;20268;-62
2021/07/22 11:22:44;;;;;;;2.10;1.65;;;;;;;33.64;25.03;101562.16;5110113;28;20565;-62
2021/07/22 11:25:10;;;;;;;3.47;1.90;;;;;;;33.82;25.15;101492.03;5110297;28;20215;-62